createdAt,value
2022-12-25T00:00:42.074Z,7.93
2022-12-25T00:01:41.962Z,7.93
2022-12-25T00:02:42.053Z,7.93
2022-12-25T00:03:42.081Z,7.92
2022-12-25T00:04:41.928Z,7.90
2022-12-25T00:05:41.906Z,7.92
2022-12-25T00:06:41.906Z,7.92
2022-12-25T00:07:41.888Z,7.92
2022-12-25T00:08:41.867Z,7.92
2022-12-25T00:09:41.888Z,7.92
2022-12-25T00:10:45.169Z,7.92
2022-12-25T00:11:41.856Z,7.92
2022-12-25T00:12:41.837Z,7.92
2022-12-25T00:13:41.851Z,7.92
2022-12-25T00:14:41.804Z,7.93
2022-12-25T00:15:41.997Z,7.92
2022-12-25T00:16:41.861Z,7.90
2022-12-25T00:17:41.798Z,7.92
2022-12-25T00:18:41.770Z,7.90
2022-12-25T00:19:41.783Z,7.90
2022-12-25T00:20:41.736Z,7.90
2022-12-25T00:21:41.745Z,7.90
2022-12-25T00:22:41.715Z,7.92
2022-12-25T00:23:41.737Z,7.90
2022-12-25T00:24:41.720Z,7.90
2022-12-25T00:25:41.714Z,7.90
2022-12-25T00:26:41.672Z,7.89
2022-12-25T00:27:41.715Z,7.90
2022-12-25T00:28:41.661Z,7.89
2022-12-25T00:29:41.659Z,7.89
2022-12-25T00:30:41.647Z,7.89
2022-12-25T00:31:41.764Z,7.87
2022-12-25T00:32:41.613Z,7.87
2022-12-25T00:33:41.641Z,7.87
2022-12-25T00:34:41.588Z,7.86
2022-12-25T00:35:41.606Z,7.87
2022-12-25T00:36:42.326Z,7.89
2022-12-25T00:37:41.584Z,7.89
2022-12-25T00:38:41.545Z,7.87
2022-12-25T00:39:41.574Z,7.87
2022-12-25T00:40:41.524Z,7.89
2022-12-25T00:41:41.527Z,7.87
2022-12-25T00:42:41.505Z,7.87
2022-12-25T00:43:41.534Z,7.89
2022-12-25T00:44:41.486Z,7.87
2022-12-25T00:45:41.550Z,7.87
2022-12-25T00:46:41.553Z,7.87
2022-12-25T00:47:41.485Z,7.86
2022-12-25T00:48:41.444Z,7.87
2022-12-25T00:49:41.465Z,7.87
2022-12-25T00:50:41.422Z,7.87
2022-12-25T00:51:41.468Z,7.86
2022-12-25T00:52:41.395Z,7.87
2022-12-25T00:53:41.413Z,7.87
2022-12-25T00:54:41.401Z,7.87
2022-12-25T00:55:41.382Z,7.86
2022-12-25T00:56:41.376Z,7.89
2022-12-25T00:57:41.372Z,7.89
2022-12-25T00:58:41.335Z,7.86
2022-12-25T00:59:41.366Z,7.87
2022-12-25T01:00:41.335Z,7.87
2022-12-25T01:01:41.497Z,7.87
2022-12-25T01:02:41.497Z,7.87
2022-12-25T01:03:41.290Z,7.87
2022-12-25T01:04:41.265Z,7.86
2022-12-25T01:05:41.277Z,7.86
2022-12-25T01:06:41.247Z,7.89
2022-12-25T01:07:41.258Z,7.87
2022-12-25T01:08:41.230Z,7.89
2022-12-25T01:09:41.247Z,7.87
2022-12-25T01:10:41.201Z,7.89
2022-12-25T01:11:41.204Z,7.90
2022-12-25T01:12:41.184Z,7.89
2022-12-25T01:13:41.197Z,7.89
2022-12-25T01:14:41.175Z,7.89
2022-12-25T01:15:41.171Z,7.87
2022-12-25T01:16:41.168Z,7.87
2022-12-25T01:17:41.140Z,7.87
2022-12-25T01:18:41.121Z,7.86
2022-12-25T01:19:41.247Z,7.87
2022-12-25T01:20:41.092Z,7.86
2022-12-25T01:21:41.102Z,7.86
2022-12-25T01:22:41.069Z,7.87
2022-12-25T01:23:41.086Z,7.87
2022-12-25T01:24:41.047Z,7.87
2022-12-25T01:25:41.067Z,7.87
2022-12-25T01:26:41.029Z,7.89
2022-12-25T01:27:41.058Z,7.87
2022-12-25T01:28:41.013Z,7.87
2022-12-25T01:29:41.032Z,7.87
2022-12-25T01:30:40.984Z,7.89
2022-12-25T01:31:41.029Z,7.90
2022-12-25T01:32:40.972Z,7.89
2022-12-25T01:33:40.992Z,7.87
2022-12-25T01:34:40.968Z,7.90
2022-12-25T01:35:40.947Z,7.90
2022-12-25T01:36:40.927Z,7.90
2022-12-25T01:37:40.925Z,7.89
2022-12-25T01:38:40.897Z,7.87
2022-12-25T01:39:40.919Z,7.87
2022-12-25T01:40:40.895Z,7.87
2022-12-25T01:41:40.895Z,7.87
2022-12-25T01:42:40.862Z,7.87
2022-12-25T01:43:40.884Z,7.86
2022-12-25T01:44:40.846Z,7.83
2022-12-25T01:45:40.863Z,7.83
2022-12-25T01:46:40.824Z,7.83
2022-12-25T01:47:40.836Z,7.85
2022-12-25T01:48:40.793Z,7.82
2022-12-25T01:49:40.815Z,7.82
2022-12-25T01:50:40.769Z,7.82
2022-12-25T01:51:40.801Z,7.80
2022-12-25T01:52:40.755Z,7.83
2022-12-25T01:53:40.750Z,7.83
2022-12-25T01:54:40.726Z,7.82
2022-12-25T01:55:40.745Z,7.83
2022-12-25T01:56:40.707Z,7.85
2022-12-25T01:57:40.731Z,7.82
2022-12-25T01:58:40.684Z,7.83
2022-12-25T01:59:40.685Z,7.85
2022-12-25T02:00:40.684Z,7.83
2022-12-25T02:01:40.757Z,7.83
2022-12-25T02:02:40.866Z,7.85
2022-12-25T02:03:40.655Z,7.85
2022-12-25T02:04:40.671Z,7.83
2022-12-25T02:05:40.634Z,7.85
2022-12-25T02:06:40.595Z,7.85
2022-12-25T02:07:40.615Z,7.85
2022-12-25T02:08:40.574Z,7.86
2022-12-25T02:09:40.596Z,7.85
2022-12-25T02:10:40.558Z,7.85
2022-12-25T02:11:40.564Z,7.83
2022-12-25T02:12:40.538Z,7.82
2022-12-25T02:13:40.545Z,7.83
2022-12-25T02:14:40.509Z,7.83
2022-12-25T02:15:40.532Z,7.83
2022-12-25T02:16:57.899Z,7.83
2022-12-25T02:17:40.517Z,7.83
2022-12-25T02:18:40.489Z,7.82
2022-12-25T02:19:40.493Z,7.82
2022-12-25T02:20:40.445Z,7.83
2022-12-25T02:21:40.447Z,7.83
2022-12-25T02:22:40.423Z,7.82
2022-12-25T02:23:40.451Z,7.83
2022-12-25T02:24:40.410Z,7.82
2022-12-25T02:25:40.430Z,7.82
2022-12-25T02:26:40.385Z,7.80
2022-12-25T02:27:40.385Z,7.80
2022-12-25T02:28:45.381Z,7.80
2022-12-25T02:29:40.385Z,7.79
2022-12-25T02:30:40.342Z,7.77
2022-12-25T02:31:40.415Z,7.77
2022-12-25T02:32:40.319Z,7.77
2022-12-25T02:33:40.334Z,7.77
2022-12-25T02:34:40.293Z,7.75
2022-12-25T02:35:40.323Z,7.75
2022-12-25T02:36:40.272Z,7.74
2022-12-25T02:37:40.281Z,7.72
2022-12-25T02:38:40.252Z,7.71
2022-12-25T02:39:40.259Z,7.71
2022-12-25T02:40:40.242Z,7.68
2022-12-25T02:41:40.249Z,7.68
2022-12-25T02:42:40.212Z,7.68
2022-12-25T02:43:40.212Z,7.67
2022-12-25T02:44:40.187Z,7.68
2022-12-25T02:45:40.309Z,7.67
2022-12-25T02:46:40.165Z,7.67
2022-12-25T02:47:40.186Z,7.64
2022-12-25T02:48:40.143Z,7.67
2022-12-25T02:49:40.154Z,7.64
2022-12-25T02:50:40.122Z,7.64
2022-12-25T02:51:40.153Z,7.67
2022-12-25T02:52:40.098Z,7.68
2022-12-25T02:53:40.108Z,7.64
2022-12-25T02:54:40.080Z,7.64
2022-12-25T02:55:40.091Z,7.67
2022-12-25T02:56:40.066Z,7.64
2022-12-25T02:57:40.084Z,7.64
2022-12-25T02:58:40.034Z,7.67
2022-12-25T02:59:40.055Z,7.64
2022-12-25T03:00:40.029Z,7.67
2022-12-25T03:01:40.123Z,7.67
2022-12-25T03:02:40.002Z,7.67
2022-12-25T03:03:40.101Z,7.67
2022-12-25T03:04:39.970Z,7.67
2022-12-25T03:05:39.990Z,7.67
2022-12-25T03:06:39.951Z,7.67
2022-12-25T03:07:39.956Z,7.68
2022-12-25T03:08:39.939Z,7.67
2022-12-25T03:09:39.948Z,7.68
2022-12-25T03:10:39.909Z,7.64
2022-12-25T03:11:39.914Z,7.67
2022-12-25T03:12:39.892Z,7.69
2022-12-25T03:13:39.902Z,7.68
2022-12-25T03:14:39.885Z,7.69
2022-12-25T03:15:39.888Z,7.68
2022-12-25T03:16:39.850Z,7.68
2022-12-25T03:17:39.847Z,7.68
2022-12-25T03:18:39.829Z,7.69
2022-12-25T03:19:39.836Z,7.68
2022-12-25T03:20:39.797Z,7.64
2022-12-25T03:21:39.814Z,7.64
2022-12-25T03:22:39.777Z,7.64
2022-12-25T03:23:39.794Z,7.61
2022-12-25T03:24:39.754Z,7.60
2022-12-25T03:25:39.755Z,7.61
2022-12-25T03:26:39.738Z,7.61
2022-12-25T03:27:39.738Z,7.60
2022-12-25T03:28:39.721Z,7.58
2022-12-25T03:29:39.720Z,7.55
2022-12-25T03:30:39.756Z,7.57
2022-12-25T03:31:39.693Z,7.57
2022-12-25T03:32:39.676Z,7.57
2022-12-25T03:33:47.021Z,7.55
2022-12-25T03:34:39.657Z,7.57
2022-12-25T03:35:39.666Z,7.57
2022-12-25T03:36:39.647Z,7.55
2022-12-25T03:37:39.653Z,7.55
2022-12-25T03:38:39.613Z,7.53
2022-12-25T03:39:39.650Z,7.53
2022-12-25T03:40:39.600Z,7.53
2022-12-25T03:41:39.624Z,7.52
2022-12-25T03:42:39.562Z,7.50
2022-12-25T03:43:39.581Z,7.50
2022-12-25T03:44:39.560Z,7.49
2022-12-25T03:45:39.572Z,7.49
2022-12-25T03:46:39.579Z,7.49
2022-12-25T03:47:39.561Z,7.48
2022-12-25T03:48:39.496Z,7.48
2022-12-25T03:49:39.518Z,7.46
2022-12-25T03:50:39.474Z,7.43
2022-12-25T03:51:39.481Z,7.45
2022-12-25T03:52:39.465Z,7.43
2022-12-25T03:53:39.473Z,7.43
2022-12-25T03:54:39.430Z,7.40
2022-12-25T03:55:39.453Z,7.39
2022-12-25T03:56:39.431Z,7.35
2022-12-25T03:57:39.435Z,7.34
2022-12-25T03:58:39.399Z,7.31
2022-12-25T03:59:39.435Z,7.28
2022-12-25T04:00:39.373Z,7.27
2022-12-25T04:01:39.521Z,7.27
2022-12-25T04:02:39.520Z,7.23
2022-12-25T04:03:39.396Z,7.23
2022-12-25T04:04:39.324Z,7.20
2022-12-25T04:05:39.354Z,7.20
2022-12-25T04:06:39.307Z,7.17
2022-12-25T04:07:39.340Z,7.16
2022-12-25T04:08:39.285Z,7.12
2022-12-25T04:09:39.303Z,7.09
2022-12-25T04:10:39.273Z,7.09
2022-12-25T04:11:39.291Z,7.07
2022-12-25T04:12:39.241Z,7.05
2022-12-25T04:13:39.264Z,7.05
2022-12-25T04:14:39.238Z,7.02
2022-12-25T04:15:39.288Z,6.98
2022-12-25T04:16:39.200Z,6.95
2022-12-25T04:17:39.202Z,6.92
2022-12-25T04:18:39.186Z,6.92
2022-12-25T04:19:39.256Z,6.88
2022-12-25T04:20:39.157Z,6.85
2022-12-25T04:21:39.177Z,6.84
2022-12-25T04:22:39.136Z,6.81
2022-12-25T04:23:39.144Z,6.80
2022-12-25T04:24:39.164Z,6.77
2022-12-25T04:25:39.103Z,6.77
2022-12-25T04:26:39.105Z,6.73
2022-12-25T04:27:39.079Z,6.71
2022-12-25T04:28:39.099Z,6.71
2022-12-25T04:29:39.078Z,6.69
2022-12-25T04:30:39.076Z,6.67
2022-12-25T04:31:39.143Z,6.67
2022-12-25T04:32:39.054Z,6.64
2022-12-25T04:33:39.019Z,6.64
2022-12-25T04:34:39.033Z,6.61
2022-12-25T04:35:39.008Z,6.61
2022-12-25T04:36:39.000Z,6.56
2022-12-25T04:37:39.006Z,6.54
2022-12-25T04:38:38.977Z,6.52
2022-12-25T04:39:38.951Z,6.51
2022-12-25T04:40:38.981Z,6.44
2022-12-25T04:41:38.937Z,6.41
2022-12-25T04:42:38.949Z,6.36
2022-12-25T04:43:38.913Z,6.30
2022-12-25T04:44:38.912Z,6.25
2022-12-25T04:45:38.897Z,6.18
2022-12-25T04:46:38.991Z,6.14
2022-12-25T04:47:38.863Z,6.14
2022-12-25T04:48:38.884Z,6.11
2022-12-25T04:49:38.848Z,6.11
2022-12-25T04:50:38.876Z,6.11
2022-12-25T04:51:38.824Z,6.09
2022-12-25T04:52:38.821Z,6.06
2022-12-25T04:53:38.806Z,6.00
2022-12-25T04:54:38.819Z,5.94
2022-12-25T04:55:38.777Z,5.91
2022-12-25T04:56:45.341Z,5.86
2022-12-25T04:57:38.768Z,5.83
2022-12-25T04:58:38.805Z,5.81
2022-12-25T04:59:38.735Z,5.75
2022-12-25T05:00:38.758Z,5.75
2022-12-25T05:01:38.825Z,5.68
2022-12-25T05:02:38.987Z,5.71
2022-12-25T05:03:38.753Z,5.72
2022-12-25T05:04:38.704Z,5.68
2022-12-25T05:05:38.702Z,5.72
2022-12-25T05:06:38.685Z,5.71
2022-12-25T05:07:45.166Z,5.68
2022-12-25T05:08:38.700Z,5.65
2022-12-25T05:09:38.633Z,5.64
2022-12-25T05:10:38.639Z,5.63
2022-12-25T05:11:38.609Z,5.63
2022-12-25T05:12:38.631Z,5.65
2022-12-25T05:13:38.606Z,5.67
2022-12-25T05:14:38.604Z,5.71
2022-12-25T05:15:38.612Z,5.75
2022-12-25T05:16:38.590Z,5.76
2022-12-25T05:17:38.553Z,5.75
2022-12-25T05:18:38.560Z,5.78
2022-12-25T05:19:38.555Z,5.79
2022-12-25T05:20:40.392Z,5.83
2022-12-25T05:21:38.515Z,5.85
2022-12-25T05:22:38.541Z,5.89
2022-12-25T05:23:38.478Z,5.89
2022-12-25T05:24:38.495Z,5.89
2022-12-25T05:25:38.486Z,5.91
2022-12-25T05:26:38.464Z,5.93
2022-12-25T05:27:38.440Z,5.93
2022-12-25T05:28:38.459Z,5.93
2022-12-25T05:29:38.434Z,5.93
2022-12-25T05:30:38.428Z,5.91
2022-12-25T05:31:38.503Z,5.91
2022-12-25T05:32:38.429Z,5.93
2022-12-25T05:33:38.374Z,5.94
2022-12-25T05:34:38.390Z,5.93
2022-12-25T05:35:38.360Z,5.99
2022-12-25T05:36:38.379Z,5.97
2022-12-25T05:37:38.340Z,5.99
2022-12-25T05:38:38.335Z,5.99
2022-12-25T05:39:38.305Z,5.97
2022-12-25T05:40:38.325Z,5.97
2022-12-25T05:41:38.371Z,5.94
2022-12-25T05:42:38.323Z,5.96
2022-12-25T05:43:38.340Z,5.96
2022-12-25T05:44:38.280Z,5.94
2022-12-25T05:45:38.274Z,5.93
2022-12-25T05:46:38.365Z,5.96
2022-12-25T05:47:38.233Z,5.96
2022-12-25T05:48:38.244Z,5.96
2022-12-25T05:49:38.199Z,5.96
2022-12-25T05:50:38.213Z,5.97
2022-12-25T05:51:38.197Z,5.97
2022-12-25T05:52:38.185Z,5.96
2022-12-25T05:53:38.169Z,5.97
2022-12-25T05:54:38.167Z,6.00
2022-12-25T05:55:38.140Z,6.00
2022-12-25T05:56:38.144Z,6.00
2022-12-25T05:57:38.122Z,6.00
2022-12-25T05:58:38.157Z,5.99
2022-12-25T05:59:38.094Z,5.99
2022-12-25T06:00:38.119Z,5.97
2022-12-25T06:01:38.200Z,5.97
2022-12-25T06:02:38.259Z,5.94
2022-12-25T06:03:38.143Z,5.91
2022-12-25T06:04:38.079Z,5.91
2022-12-25T06:05:38.035Z,5.89
2022-12-25T06:06:38.081Z,5.90
2022-12-25T06:07:38.018Z,5.85
2022-12-25T06:08:38.047Z,5.85
2022-12-25T06:09:37.987Z,5.86
2022-12-25T06:10:37.999Z,5.86
2022-12-25T06:11:37.962Z,5.89
2022-12-25T06:12:37.986Z,5.86
2022-12-25T06:13:37.953Z,5.86
2022-12-25T06:14:37.987Z,5.85
2022-12-25T06:15:37.932Z,5.85
2022-12-25T06:16:38.697Z,5.85
2022-12-25T06:17:37.898Z,5.85
2022-12-25T06:18:37.940Z,5.85
2022-12-25T06:19:37.893Z,5.85
2022-12-25T06:20:37.898Z,5.86
2022-12-25T06:21:37.861Z,5.89
2022-12-25T06:22:37.884Z,5.86
2022-12-25T06:23:37.870Z,5.90
2022-12-25T06:24:37.862Z,5.93
2022-12-25T06:25:37.829Z,5.93
2022-12-25T06:26:37.836Z,5.96
2022-12-25T06:27:37.798Z,5.97
2022-12-25T06:28:37.811Z,5.97
2022-12-25T06:29:37.788Z,6.00
2022-12-25T06:30:37.797Z,6.04
2022-12-25T06:31:37.780Z,6.06
2022-12-25T06:32:37.766Z,6.11
2022-12-25T06:33:37.737Z,6.17
2022-12-25T06:34:37.746Z,6.17
2022-12-25T06:35:37.707Z,6.19
2022-12-25T06:36:37.717Z,6.22
2022-12-25T06:37:37.706Z,6.27
2022-12-25T06:38:37.692Z,6.30
2022-12-25T06:39:37.613Z,6.31
2022-12-25T06:40:37.669Z,6.33
2022-12-25T06:41:37.602Z,6.36
2022-12-25T06:42:37.623Z,6.37
2022-12-25T06:43:37.577Z,6.37
2022-12-25T06:44:37.659Z,6.40
2022-12-25T06:45:37.628Z,6.41
2022-12-25T06:46:37.603Z,6.41
2022-12-25T06:47:37.556Z,6.44
2022-12-25T06:48:37.604Z,6.46
2022-12-25T06:49:37.562Z,6.49
2022-12-25T06:50:37.534Z,6.49
2022-12-25T06:51:37.488Z,6.51
2022-12-25T06:52:37.490Z,6.52
2022-12-25T06:53:40.217Z,6.54
2022-12-25T06:54:37.476Z,6.54
2022-12-25T06:55:37.444Z,6.55
2022-12-25T06:56:37.447Z,6.55
2022-12-25T06:57:37.435Z,6.55
2022-12-25T06:58:37.455Z,6.55
2022-12-25T06:59:37.398Z,6.56
2022-12-25T07:00:37.478Z,6.56
2022-12-25T07:01:37.496Z,6.56
2022-12-25T07:02:37.532Z,6.58
2022-12-25T07:03:37.353Z,6.59
2022-12-25T07:04:37.370Z,6.58
2022-12-25T07:05:37.363Z,6.59
2022-12-25T07:06:37.340Z,6.59
2022-12-25T07:07:37.334Z,6.59
2022-12-25T07:08:37.336Z,6.62
2022-12-25T07:09:37.304Z,6.62
2022-12-25T07:10:37.303Z,6.64
2022-12-25T07:11:37.270Z,6.66
2022-12-25T07:12:37.307Z,6.69
2022-12-25T07:13:37.275Z,6.69
2022-12-25T07:14:37.255Z,6.69
2022-12-25T07:15:37.237Z,6.71
2022-12-25T07:16:37.345Z,6.73
2022-12-25T07:17:37.207Z,6.71
2022-12-25T07:18:37.224Z,6.74
2022-12-25T07:19:41.081Z,6.76
2022-12-25T07:20:37.208Z,6.77
2022-12-25T07:21:37.161Z,6.77
2022-12-25T07:22:37.203Z,6.77
2022-12-25T07:23:37.158Z,6.79
2022-12-25T07:24:39.194Z,6.80
2022-12-25T07:25:37.685Z,6.80
2022-12-25T07:26:37.160Z,6.81
2022-12-25T07:27:37.148Z,6.84
2022-12-25T07:28:37.445Z,6.84
2022-12-25T07:29:37.248Z,6.84
2022-12-25T07:30:37.106Z,6.84
2022-12-25T07:31:37.113Z,6.85
2022-12-25T07:32:37.102Z,6.87
2022-12-25T07:33:37.031Z,6.87
2022-12-25T07:34:37.050Z,6.88
2022-12-25T07:35:37.013Z,6.89
2022-12-25T07:36:37.020Z,6.91
2022-12-25T07:37:37.001Z,6.89
2022-12-25T07:38:37.002Z,6.92
2022-12-25T07:39:36.975Z,6.94
2022-12-25T07:40:36.986Z,6.95
2022-12-25T07:41:36.996Z,6.94
2022-12-25T07:42:36.962Z,6.97
2022-12-25T07:43:36.925Z,6.95
2022-12-25T07:44:36.952Z,6.97
2022-12-25T07:45:36.991Z,6.99
2022-12-25T07:46:36.913Z,6.98
2022-12-25T07:47:36.955Z,6.99
2022-12-25T07:48:36.904Z,6.99
2022-12-25T07:49:36.864Z,6.98
2022-12-25T07:50:36.884Z,6.99
2022-12-25T07:51:36.855Z,6.98
2022-12-25T07:52:43.193Z,6.99
2022-12-25T07:53:36.846Z,6.98
2022-12-25T07:54:36.824Z,6.97
2022-12-25T07:55:36.798Z,6.95
2022-12-25T07:56:36.812Z,6.97
2022-12-25T07:57:36.781Z,6.95
2022-12-25T07:58:36.787Z,6.95
2022-12-25T07:59:36.769Z,6.97
2022-12-25T08:00:36.850Z,6.98
2022-12-25T08:01:36.880Z,7.02
2022-12-25T08:02:37.007Z,7.02
2022-12-25T08:03:36.984Z,7.05
2022-12-25T08:04:36.752Z,7.07
2022-12-25T08:05:36.720Z,7.10
2022-12-25T08:06:36.693Z,7.12
2022-12-25T08:07:36.670Z,7.15
2022-12-25T08:08:36.693Z,7.16
2022-12-25T08:09:36.652Z,7.21
2022-12-25T08:10:36.672Z,7.24
2022-12-25T08:11:36.628Z,7.25
2022-12-25T08:12:36.645Z,7.30
2022-12-25T08:13:36.613Z,7.32
2022-12-25T08:14:36.640Z,7.35
2022-12-25T08:15:36.587Z,7.39
2022-12-25T08:16:36.688Z,7.42
2022-12-25T08:17:36.563Z,7.45
2022-12-25T08:18:36.598Z,7.46
2022-12-25T08:19:36.569Z,7.49
2022-12-25T08:20:36.555Z,7.49
2022-12-25T08:21:36.529Z,7.52
2022-12-25T08:22:36.534Z,7.58
2022-12-25T08:23:36.504Z,7.58
2022-12-25T08:24:36.501Z,7.63
2022-12-25T08:25:36.497Z,7.68
2022-12-25T08:26:36.522Z,7.69
2022-12-25T08:27:36.464Z,7.74
2022-12-25T08:28:36.473Z,7.74
2022-12-25T08:29:36.431Z,7.79
2022-12-25T08:30:36.519Z,7.79
2022-12-25T08:31:40.840Z,7.79
2022-12-25T08:32:36.434Z,7.80
2022-12-25T08:33:36.445Z,7.82
2022-12-25T08:34:36.404Z,7.83
2022-12-25T08:35:36.379Z,7.82
2022-12-25T08:36:36.353Z,7.80
2022-12-25T08:37:36.357Z,7.82
2022-12-25T08:38:36.333Z,7.83
2022-12-25T08:39:36.359Z,7.85
2022-12-25T08:40:36.319Z,7.87
2022-12-25T08:41:36.331Z,7.89
2022-12-25T08:42:36.292Z,7.93
2022-12-25T08:43:36.315Z,7.98
2022-12-25T08:44:36.274Z,8.04
2022-12-25T08:45:36.288Z,8.07
2022-12-25T08:46:36.291Z,8.11
2022-12-25T08:47:36.275Z,8.18
2022-12-25T08:48:36.234Z,8.19
2022-12-25T08:49:36.229Z,8.23
2022-12-25T08:50:36.225Z,8.28
2022-12-25T08:51:36.235Z,8.30
2022-12-25T08:52:36.184Z,8.33
2022-12-25T08:53:36.204Z,8.34
2022-12-25T08:54:36.162Z,8.38
2022-12-25T08:55:36.169Z,8.41
2022-12-25T08:56:36.151Z,8.44
2022-12-25T08:57:36.174Z,8.45
2022-12-25T08:58:36.125Z,8.50
2022-12-25T08:59:36.125Z,8.53
2022-12-25T09:00:36.096Z,8.58
2022-12-25T09:01:36.286Z,8.63
2022-12-25T09:02:36.344Z,8.65
2022-12-25T09:03:36.209Z,8.70
2022-12-25T09:04:36.058Z,8.74
2022-12-25T09:05:36.056Z,8.77
2022-12-25T09:06:36.033Z,8.80
2022-12-25T09:07:36.054Z,8.83
2022-12-25T09:08:36.019Z,8.86
2022-12-25T09:09:36.036Z,8.91
2022-12-25T09:10:35.989Z,8.94
2022-12-25T09:11:36.027Z,8.98
2022-12-25T09:12:35.976Z,8.96
2022-12-25T09:13:35.986Z,9.01
2022-12-25T09:14:35.964Z,9.05
2022-12-25T09:15:35.976Z,9.13
2022-12-25T09:16:35.929Z,9.14
2022-12-25T09:17:35.948Z,9.21
2022-12-25T09:18:35.928Z,9.21
2022-12-25T09:19:35.930Z,9.23
2022-12-25T09:20:35.886Z,9.28
2022-12-25T09:21:35.901Z,9.26
2022-12-25T09:22:35.860Z,9.20
2022-12-25T09:23:35.886Z,9.17
2022-12-25T09:24:35.863Z,9.18
2022-12-25T09:25:35.853Z,9.18
2022-12-25T09:26:35.827Z,9.20
2022-12-25T09:27:35.839Z,9.23
2022-12-25T09:28:35.792Z,9.26
2022-12-25T09:29:35.798Z,9.26
2022-12-25T09:30:35.846Z,9.26
2022-12-25T09:31:35.794Z,9.26
2022-12-25T09:32:35.783Z,9.24
2022-12-25T09:33:35.760Z,9.26
2022-12-25T09:34:35.743Z,9.29
2022-12-25T09:35:35.757Z,9.31
2022-12-25T09:36:35.713Z,9.31
2022-12-25T09:37:35.753Z,9.29
2022-12-25T09:38:35.685Z,9.24
2022-12-25T09:39:38.207Z,9.29
2022-12-25T09:40:35.680Z,9.29
2022-12-25T09:41:35.688Z,9.32
2022-12-25T09:42:35.640Z,9.35
2022-12-25T09:43:35.657Z,9.40
2022-12-25T09:44:35.621Z,9.46
2022-12-25T09:45:35.644Z,9.48
2022-12-25T09:46:37.419Z,9.47
2022-12-25T09:47:35.634Z,9.50
2022-12-25T09:48:35.586Z,9.50
2022-12-25T09:49:35.596Z,9.53
2022-12-25T09:50:35.585Z,9.56
2022-12-25T09:51:35.623Z,9.60
2022-12-25T09:52:35.578Z,9.66
2022-12-25T09:53:35.572Z,9.66
2022-12-25T09:54:35.513Z,9.68
2022-12-25T09:55:35.528Z,9.64
2022-12-25T09:56:35.493Z,9.64
2022-12-25T09:57:35.501Z,9.65
2022-12-25T09:58:35.475Z,9.68
2022-12-25T09:59:35.545Z,9.71
2022-12-25T10:00:35.448Z,9.71
2022-12-25T10:01:35.543Z,9.72
2022-12-25T10:02:35.875Z,9.69
2022-12-25T10:03:35.483Z,9.72
2022-12-25T10:04:40.631Z,9.83
2022-12-25T10:05:35.452Z,9.89
2022-12-25T10:06:35.403Z,9.96
2022-12-25T10:07:35.394Z,9.99
2022-12-25T10:08:35.376Z,10.07
2022-12-25T10:09:35.370Z,10.11
2022-12-25T10:10:35.363Z,10.25
2022-12-25T10:11:35.373Z,10.38
2022-12-25T10:12:35.333Z,10.52
2022-12-25T10:13:35.325Z,10.61
2022-12-25T10:14:35.326Z,10.64
2022-12-25T10:15:39.271Z,10.74
2022-12-25T10:16:35.347Z,10.82
2022-12-25T10:17:35.283Z,10.86
2022-12-25T10:18:35.278Z,10.81
2022-12-25T10:19:35.271Z,10.76
2022-12-25T10:20:35.228Z,10.76
2022-12-25T10:21:35.254Z,10.84
2022-12-25T10:22:35.220Z,10.86
2022-12-25T10:23:35.211Z,10.89
2022-12-25T10:24:35.198Z,10.84
2022-12-25T10:25:35.203Z,10.91
2022-12-25T10:26:35.167Z,11.02
2022-12-25T10:27:35.197Z,11.11
2022-12-25T10:28:35.156Z,11.17
2022-12-25T10:29:35.159Z,11.22
2022-12-25T10:30:35.133Z,11.24
2022-12-25T10:31:35.166Z,11.24
2022-12-25T10:32:35.112Z,11.24
2022-12-25T10:33:35.149Z,11.21
2022-12-25T10:34:35.078Z,11.19
2022-12-25T10:35:35.087Z,11.17
2022-12-25T10:36:35.068Z,11.15
2022-12-25T10:37:35.081Z,11.10
2022-12-25T10:38:35.034Z,11.07
2022-12-25T10:39:36.070Z,11.06
2022-12-25T10:40:35.014Z,11.06
2022-12-25T10:41:35.035Z,11.04
2022-12-25T10:42:35.008Z,11.07
2022-12-25T10:43:35.015Z,11.06
2022-12-25T10:44:35.002Z,11.14
2022-12-25T10:45:34.983Z,11.25
2022-12-25T10:46:34.970Z,11.36
2022-12-25T10:47:34.965Z,11.44
2022-12-25T10:48:34.935Z,11.54
2022-12-25T10:49:34.975Z,11.52
2022-12-25T10:50:34.923Z,11.49
2022-12-25T10:51:34.945Z,11.51
2022-12-25T10:52:34.909Z,11.47
2022-12-25T10:53:34.900Z,11.52
2022-12-25T10:54:34.871Z,11.60
2022-12-25T10:55:34.891Z,11.65
2022-12-25T10:56:34.841Z,11.75
2022-12-25T10:57:34.851Z,11.80
2022-12-25T10:58:34.824Z,11.88
2022-12-25T10:59:34.834Z,11.95
2022-12-25T11:00:34.819Z,11.95
2022-12-25T11:01:34.954Z,12.02
2022-12-25T11:02:35.002Z,11.96
2022-12-25T11:03:34.951Z,11.85
2022-12-25T11:04:34.764Z,11.82
2022-12-25T11:05:34.769Z,11.78
2022-12-25T11:06:34.759Z,11.76
2022-12-25T11:07:34.734Z,11.62
2022-12-25T11:08:34.778Z,11.55
2022-12-25T11:09:34.722Z,11.58
2022-12-25T11:10:34.689Z,11.54
2022-12-25T11:11:34.711Z,11.52
2022-12-25T11:12:34.660Z,11.54
2022-12-25T11:13:34.699Z,11.52
2022-12-25T11:14:34.647Z,11.52
2022-12-25T11:15:34.655Z,11.54
2022-12-25T11:16:34.637Z,11.54
2022-12-25T11:17:34.629Z,11.54
2022-12-25T11:18:34.651Z,11.54
2022-12-25T11:19:34.620Z,11.55
2022-12-25T11:20:34.596Z,11.55
2022-12-25T11:21:34.601Z,11.52
2022-12-25T11:22:34.562Z,11.54
2022-12-25T11:23:34.560Z,11.57
2022-12-25T11:24:34.550Z,11.54
2022-12-25T11:25:34.552Z,11.55
2022-12-25T11:26:34.513Z,11.60
2022-12-25T11:27:34.537Z,11.64
2022-12-25T11:28:34.491Z,11.64
2022-12-25T11:29:34.505Z,11.64
2022-12-25T11:30:34.477Z,11.64
2022-12-25T11:31:34.526Z,11.73
2022-12-25T11:32:34.470Z,11.82
2022-12-25T11:33:34.469Z,11.86
2022-12-25T11:34:34.434Z,11.95
2022-12-25T11:35:34.472Z,12.04
2022-12-25T11:36:34.406Z,12.13
2022-12-25T11:37:34.422Z,12.17
2022-12-25T11:38:34.381Z,12.23
2022-12-25T11:39:34.438Z,12.32
2022-12-25T11:40:34.365Z,12.32
2022-12-25T11:41:34.397Z,12.32
2022-12-25T11:42:34.362Z,12.32
2022-12-25T11:43:34.346Z,12.27
2022-12-25T11:44:34.322Z,12.20
2022-12-25T11:45:34.335Z,12.20
2022-12-25T11:46:34.359Z,12.24
2022-12-25T11:47:34.324Z,12.35
2022-12-25T11:48:34.303Z,12.45
2022-12-25T11:49:34.295Z,12.50
2022-12-25T11:50:34.266Z,12.53
2022-12-25T11:51:34.278Z,12.54
2022-12-25T11:52:34.249Z,12.53
2022-12-25T11:53:34.231Z,12.53
2022-12-25T11:54:34.212Z,12.57
2022-12-25T11:55:34.226Z,12.64
2022-12-25T11:56:34.200Z,12.70
2022-12-25T11:57:34.209Z,12.64
2022-12-25T11:58:34.189Z,12.54
2022-12-25T11:59:34.190Z,12.49
2022-12-25T12:00:34.146Z,12.49
2022-12-25T12:01:34.357Z,12.50
2022-12-25T12:02:34.235Z,12.47
2022-12-25T12:03:34.174Z,12.38
2022-12-25T12:04:42.044Z,12.37
2022-12-25T12:05:34.121Z,12.39
2022-12-25T12:06:34.078Z,12.42
2022-12-25T12:07:34.087Z,12.42
2022-12-25T12:08:34.068Z,12.42
2022-12-25T12:09:34.073Z,12.39
2022-12-25T12:10:34.043Z,12.39
2022-12-25T12:11:34.052Z,12.37
2022-12-25T12:12:34.021Z,12.31
2022-12-25T12:13:34.011Z,12.21
2022-12-25T12:14:33.996Z,12.12
2022-12-25T12:15:33.995Z,12.10
2022-12-25T12:16:34.044Z,12.02
2022-12-25T12:17:33.969Z,11.99
2022-12-25T12:18:33.962Z,11.96
2022-12-25T12:19:33.950Z,11.94
2022-12-25T12:20:33.924Z,11.85
2022-12-25T12:21:33.956Z,11.86
2022-12-25T12:22:33.899Z,11.90
2022-12-25T12:23:33.916Z,11.86
2022-12-25T12:24:33.894Z,11.86
2022-12-25T12:25:33.903Z,11.95
2022-12-25T12:26:33.866Z,11.98
2022-12-25T12:27:33.879Z,12.02
2022-12-25T12:28:33.836Z,12.04
2022-12-25T12:29:33.849Z,12.09
2022-12-25T12:30:33.841Z,12.13
2022-12-25T12:31:33.880Z,12.20
2022-12-25T12:32:33.805Z,12.27
2022-12-25T12:33:33.812Z,12.27
2022-12-25T12:34:33.775Z,12.32
2022-12-25T12:35:33.777Z,12.41
2022-12-25T12:36:36.564Z,12.49
2022-12-25T12:37:33.771Z,12.54
2022-12-25T12:38:33.738Z,12.57
2022-12-25T12:39:33.759Z,12.65
2022-12-25T12:40:33.709Z,12.68
2022-12-25T12:41:33.717Z,12.70
2022-12-25T12:42:33.690Z,12.72
2022-12-25T12:43:33.697Z,12.75
2022-12-25T12:44:33.669Z,12.77
2022-12-25T12:45:33.744Z,12.75
2022-12-25T12:46:33.708Z,12.75
2022-12-25T12:47:33.655Z,12.78
2022-12-25T12:48:33.626Z,12.74
2022-12-25T12:49:33.669Z,12.75
2022-12-25T12:50:33.622Z,12.82
2022-12-25T12:51:33.576Z,12.82
2022-12-25T12:52:33.610Z,12.77
2022-12-25T12:53:33.574Z,12.70
2022-12-25T12:54:33.598Z,12.86
2022-12-25T12:55:33.548Z,13.11
2022-12-25T12:56:33.537Z,13.29
2022-12-25T12:57:33.511Z,13.38
2022-12-25T12:58:33.642Z,13.48
2022-12-25T12:59:33.489Z,13.54
2022-12-25T13:00:33.511Z,13.48
2022-12-25T13:01:33.555Z,13.45
2022-12-25T13:02:33.628Z,13.45
2022-12-25T13:03:33.508Z,13.38
2022-12-25T13:04:33.474Z,13.39
2022-12-25T13:05:34.864Z,13.33
2022-12-25T13:06:33.434Z,13.32
2022-12-25T13:07:33.408Z,13.28
2022-12-25T13:08:33.430Z,13.22
2022-12-25T13:09:33.394Z,13.17
2022-12-25T13:10:33.417Z,13.17
2022-12-25T13:11:33.358Z,13.10
2022-12-25T13:12:33.404Z,13.07